createdAt,value
2018-12-04T00:01:29.376Z,100084.64
2018-12-04T00:03:57.611Z,100090.08
2018-12-04T00:06:25.785Z,100089.18
2018-12-04T00:08:53.926Z,100089.22
2018-12-04T00:11:22.117Z,100098.92
2018-12-04T00:13:50.413Z,100099.13
2018-12-04T00:16:18.596Z,100102.33
2018-12-04T00:18:46.835Z,100110.73
2018-12-04T00:21:14.998Z,100116.61
2018-12-04T00:23:43.194Z,100125.53
2018-12-04T00:26:11.345Z,100126.77
2018-12-04T00:28:39.689Z,100128.66
2018-12-04T00:31:07.880Z,100136.44
2018-12-04T00:33:36.053Z,100152.42
2018-12-04T00:36:04.372Z,100152.91
2018-12-04T00:38:32.514Z,100160.84
2018-12-04T00:41:00.717Z,100173.53
2018-12-04T00:43:28.849Z,100177.48
2018-12-04T00:45:57.006Z,100171.67
2018-12-04T00:48:25.316Z,100178.83
2018-12-04T00:50:53.646Z,100189.88
2018-12-04T00:53:21.876Z,100199.66
2018-12-04T00:55:50.058Z,100203.03
2018-12-04T00:58:18.258Z,100203.23
2018-12-04T01:00:46.605Z,100207.35
2018-12-04T01:03:14.753Z,100213.76
2018-12-04T01:05:42.884Z,100224.92
2018-12-04T01:08:11.099Z,100228.02
2018-12-04T01:10:48.438Z,100230.64
2018-12-04T01:13:16.652Z,100240.21
2018-12-04T01:15:45.024Z,100240.80
2018-12-04T01:18:13.230Z,100246.33
2018-12-04T01:20:41.516Z,100247.00
2018-12-04T01:23:09.871Z,100248.59
2018-12-04T01:25:38.117Z,100263.72
2018-12-04T01:28:06.315Z,100271.23
2018-12-04T01:30:34.440Z,100276.09
2018-12-04T01:33:02.718Z,100282.69
2018-12-04T01:35:30.872Z,100290.56
2018-12-04T01:37:59.078Z,100302.12
2018-12-04T01:40:27.745Z,100302.59
2018-12-04T01:42:55.969Z,100298.77
2018-12-04T01:45:24.675Z,100303.36
2018-12-04T01:47:52.818Z,100314.24
2018-12-04T01:50:21.010Z,100330.02
2018-12-04T01:52:49.249Z,100327.98
2018-12-04T01:55:17.434Z,100334.75
2018-12-04T01:57:45.552Z,100338.66
2018-12-04T02:00:13.781Z,100342.24
2018-12-04T02:02:42.025Z,100350.80
2018-12-04T02:05:10.220Z,100355.58
2018-12-04T02:07:38.428Z,100364.59
2018-12-04T02:10:06.683Z,100367.02
2018-12-04T02:12:34.956Z,100373.85
2018-12-04T02:15:03.320Z,100387.62
2018-12-04T02:17:31.520Z,100391.54
2018-12-04T02:19:59.684Z,100387.02
2018-12-04T02:22:27.894Z,100401.55
2018-12-04T02:24:56.053Z,100400.20
2018-12-04T02:27:24.354Z,100412.47
2018-12-04T02:29:52.544Z,100423.65
2018-12-04T02:32:20.712Z,100429.39
2018-12-04T02:34:48.854Z,100429.05
2018-12-04T02:37:16.971Z,100440.87
2018-12-04T02:39:45.219Z,100451.77
2018-12-04T02:42:13.364Z,100462.42
2018-12-04T02:44:41.509Z,100466.98
2018-12-04T02:47:09.615Z,100467.68
2018-12-04T02:49:37.903Z,100476.41
2018-12-04T02:52:06.103Z,100479.97
2018-12-04T02:54:34.392Z,100489.28
2018-12-04T02:57:02.590Z,100491.91
2018-12-04T02:59:30.852Z,100499.80
2018-12-04T03:01:59.180Z,100511.20
2018-12-04T03:04:27.325Z,100511.13
2018-12-04T03:06:55.513Z,100502.78
2018-12-04T03:09:23.700Z,100514.94
2018-12-04T03:11:51.984Z,100522.59
2018-12-04T03:14:20.117Z,100527.78
2018-12-04T03:16:48.288Z,100542.78
2018-12-04T03:19:16.551Z,100551.82
2018-12-04T03:21:44.664Z,100552.77
2018-12-04T03:24:12.898Z,100553.59
2018-12-04T03:26:41.213Z,100558.66
2018-12-04T03:29:09.446Z,100574.11
2018-12-04T03:31:37.713Z,100577.30
2018-12-04T03:34:06.005Z,100589.03
2018-12-04T03:36:34.232Z,100591.12
2018-12-04T03:39:02.368Z,100592.08
2018-12-04T03:41:30.528Z,100600.55
2018-12-04T03:43:58.684Z,100609.19
2018-12-04T03:46:26.960Z,100615.00
2018-12-04T03:48:55.203Z,100621.17
2018-12-04T03:51:23.495Z,100625.95
2018-12-04T03:53:51.651Z,100627.13
2018-12-04T03:56:19.829Z,100638.48
2018-12-04T03:58:48.164Z,100639.71
2018-12-04T04:01:16.404Z,100646.29
2018-12-04T04:03:44.536Z,100653.45
2018-12-04T04:06:12.662Z,100656.31
2018-12-04T04:08:41.194Z,100661.20
2018-12-04T04:11:09.330Z,100664.13
2018-12-04T04:13:37.483Z,100670.01
2018-12-04T04:16:05.792Z,100676.10
2018-12-04T04:18:33.982Z,100675.39
2018-12-04T04:21:02.256Z,100679.03
2018-12-04T04:23:30.402Z,100690.22
2018-12-04T04:25:58.777Z,100706.82
2018-12-04T04:28:27.076Z,100708.30
2018-12-04T04:30:55.277Z,100706.91
2018-12-04T04:33:23.417Z,100706.36
2018-12-04T04:35:51.629Z,100713.01
2018-12-04T04:38:19.912Z,100712.07
2018-12-04T04:40:48.041Z,100721.43
2018-12-04T04:43:16.224Z,100723.30
2018-12-04T04:45:44.373Z,100724.05
2018-12-04T04:48:12.530Z,100723.61
2018-12-04T04:50:40.742Z,100731.20
2018-12-04T04:53:08.939Z,100735.68
2018-12-04T04:55:37.156Z,100734.55
2018-12-04T04:58:05.364Z,100739.93
2018-12-04T05:00:33.582Z,100748.58
2018-12-04T05:03:01.808Z,100757.86
2018-12-04T05:05:34.252Z,100765.13
2018-12-04T05:08:02.456Z,100763.84
2018-12-04T05:10:30.614Z,100773.22
2018-12-04T05:12:58.739Z,100778.05
2018-12-04T05:15:27.265Z,100788.39
2018-12-04T05:17:55.537Z,100792.70
2018-12-04T05:20:23.825Z,100795.20
2018-12-04T05:22:52.061Z,100803.81
2018-12-04T05:25:20.285Z,100799.48
2018-12-04T05:27:48.544Z,100803.47
2018-12-04T05:30:16.767Z,100814.07
2018-12-04T05:32:44.999Z,100816.20
2018-12-04T05:35:13.215Z,100822.38
2018-12-04T05:37:41.443Z,100829.28
2018-12-04T05:40:09.655Z,100835.27
2018-12-04T05:42:37.966Z,100838.23
2018-12-04T05:45:07.002Z,100846.70
2018-12-04T05:47:35.226Z,100849.04
2018-12-04T05:50:03.644Z,100856.95
2018-12-04T05:52:31.935Z,100863.55
2018-12-04T05:55:00.176Z,100866.66
2018-12-04T05:57:28.358Z,100867.67
2018-12-04T05:59:56.542Z,100880.42
2018-12-04T06:02:24.886Z,100884.33
2018-12-04T06:04:53.072Z,100886.72
2018-12-04T06:07:21.308Z,100889.22
2018-12-04T06:09:49.638Z,100895.25
2018-12-04T06:12:17.818Z,100902.86
2018-12-04T06:14:46.075Z,100908.47
2018-12-04T06:17:14.426Z,100921.80
2018-12-04T06:19:42.637Z,100915.95
2018-12-04T06:22:10.772Z,100921.33
2018-12-04T06:24:38.980Z,100927.18
2018-12-04T06:27:07.207Z,100941.28
2018-12-04T06:29:35.381Z,100946.10
2018-12-04T06:32:03.592Z,100955.84
2018-12-04T06:34:31.743Z,100957.29
2018-12-04T06:36:59.992Z,100965.39
2018-12-04T06:39:28.232Z,100974.98
2018-12-04T06:41:56.545Z,100980.52
2018-12-04T06:44:24.669Z,100982.87
2018-12-04T06:46:52.881Z,100989.89
2018-12-04T06:49:21.114Z,100999.47
2018-12-04T06:51:49.387Z,101000.22
2018-12-04T06:54:17.605Z,101023.66
2018-12-04T06:56:45.751Z,101017.95
2018-12-04T06:59:13.957Z,101023.27
2018-12-04T07:01:42.145Z,101017.35
2018-12-04T07:04:10.384Z,101037.91
2018-12-04T07:06:38.564Z,101034.02
2018-12-04T07:09:07.927Z,101048.05
2018-12-04T07:11:36.114Z,101050.50
2018-12-04T07:14:04.428Z,101069.33
2018-12-04T07:16:32.630Z,101082.84
2018-12-04T07:19:00.892Z,101092.73
2018-12-04T07:21:29.136Z,101096.05
2018-12-04T07:23:57.296Z,101102.38
2018-12-04T07:26:25.519Z,101115.00
2018-12-04T07:28:53.664Z,101119.55
2018-12-04T07:31:21.911Z,101117.05
2018-12-04T07:33:50.150Z,101128.06
2018-12-04T07:36:18.453Z,101132.25
2018-12-04T07:38:46.671Z,101148.87
2018-12-04T07:41:14.820Z,101146.55
2018-12-04T07:43:43.036Z,101157.81
2018-12-04T07:46:11.367Z,101169.05
2018-12-04T07:48:39.503Z,101163.94
2018-12-04T07:51:07.734Z,101173.66
2018-12-04T07:53:35.924Z,101179.74
2018-12-04T07:56:04.088Z,101168.59
2018-12-04T07:58:32.247Z,101178.59
2018-12-04T08:01:00.391Z,101188.25
2018-12-04T08:03:28.530Z,101189.34
2018-12-04T08:05:56.824Z,101190.17
2018-12-04T08:08:25.455Z,101193.45
2018-12-04T08:10:53.600Z,101202.33
2018-12-04T08:13:21.884Z,101205.87
2018-12-04T08:15:50.037Z,101215.41
2018-12-04T08:18:18.216Z,101225.44
2018-12-04T08:20:46.482Z,101232.27
2018-12-04T08:23:14.613Z,101235.49
2018-12-04T08:25:42.739Z,101250.27
2018-12-04T08:28:10.982Z,101252.06
2018-12-04T08:30:39.089Z,101249.36
2018-12-04T08:33:07.260Z,101257.05
2018-12-04T08:35:35.413Z,101253.75
2018-12-04T08:38:03.636Z,101248.61
2018-12-04T08:40:31.828Z,101256.38
2018-12-04T08:43:00.037Z,101260.75
2018-12-04T08:45:28.277Z,101263.05
2018-12-04T08:47:59.370Z,101265.67
2018-12-04T08:50:27.592Z,101267.84
2018-12-04T08:52:55.810Z,101274.37
2018-12-04T08:55:24.009Z,101281.39
2018-12-04T08:57:52.152Z,101278.23
2018-12-04T09:00:20.472Z,101290.94
2018-12-04T09:02:48.756Z,101290.52
2018-12-04T09:05:17.041Z,101292.34
2018-12-04T09:07:45.404Z,101306.06
2018-12-04T09:10:13.695Z,101315.28
2018-12-04T09:12:41.824Z,101320.77
2018-12-04T09:15:10.109Z,101333.20
2018-12-04T09:17:38.227Z,101337.38
2018-12-04T09:20:07.810Z,101349.78
2018-12-04T09:22:36.025Z,101360.52
2018-12-04T09:25:04.721Z,101368.75
2018-12-04T09:27:33.164Z,101370.47
2018-12-04T09:30:01.423Z,101381.33
2018-12-04T09:32:29.637Z,101397.38
2018-12-04T09:34:57.751Z,101400.56
2018-12-04T09:37:25.967Z,101397.98
2018-12-04T09:39:54.270Z,101405.25
2018-12-04T09:42:22.532Z,101420.93
2018-12-04T09:44:50.660Z,101419.22
2018-12-04T09:47:19.200Z,101426.23
2018-12-04T09:49:47.495Z,101432.52
2018-12-04T09:52:15.761Z,101432.75
2018-12-04T09:54:44.025Z,101439.75
2018-12-04T09:57:12.175Z,101439.45
2018-12-04T09:59:40.318Z,101436.76
2018-12-04T10:02:08.433Z,101448.55
2018-12-04T10:04:36.577Z,101454.14
2018-12-04T10:07:04.895Z,101456.70
2018-12-04T10:09:33.023Z,101462.34
2018-12-04T10:12:01.190Z,101473.48
2018-12-04T10:14:29.424Z,101480.29
2018-12-04T10:16:57.548Z,101489.55
2018-12-04T10:19:25.811Z,101490.23
2018-12-04T10:21:53.964Z,101491.32
2018-12-04T10:24:22.097Z,101502.30
2018-12-04T10:26:55.507Z,101496.58
2018-12-04T10:29:23.791Z,101491.91
2018-12-04T10:31:55.945Z,101499.01
2018-12-04T10:34:22.160Z,101497.63
2018-12-04T10:36:50.364Z,101503.15
2018-12-04T10:39:18.605Z,101498.98
2018-12-04T10:41:46.936Z,101510.64
2018-12-04T10:44:15.064Z,101509.09
2018-12-04T10:46:43.288Z,101514.70
2018-12-04T10:49:11.538Z,101514.97
2018-12-04T10:51:39.732Z,101523.84
2018-12-04T10:54:08.024Z,101524.85
2018-12-04T10:56:36.210Z,101524.08
2018-12-04T10:59:04.408Z,101535.31
2018-12-04T11:01:37.900Z,101537.53
2018-12-04T11:04:06.181Z,101544.01
2018-12-04T11:06:34.372Z,101549.53
2018-12-04T11:09:02.639Z,101550.53
2018-12-04T11:11:30.781Z,101557.43
2018-12-04T11:13:58.923Z,101564.63
2018-12-04T11:16:27.220Z,101567.88
2018-12-04T11:18:55.508Z,101569.70
2018-12-04T11:21:23.749Z,101579.18
2018-12-04T11:23:51.888Z,101578.05
2018-12-04T11:26:20.041Z,101585.07
2018-12-04T11:28:54.788Z,101576.31
2018-12-04T11:31:23.009Z,101582.60
2018-12-04T11:33:51.140Z,101589.34
2018-12-04T11:36:19.736Z,101597.69
2018-12-04T11:38:47.900Z,101589.83
2018-12-04T11:41:16.011Z,101592.11
2018-12-04T11:43:44.131Z,101589.30
2018-12-04T11:46:12.449Z,101597.70
2018-12-04T11:48:40.701Z,101598.89
2018-12-04T11:51:08.908Z,101598.46
2018-12-04T11:53:37.036Z,101604.68
2018-12-04T11:56:05.315Z,101611.81
2018-12-04T11:58:33.513Z,101626.91
2018-12-04T12:01:01.875Z,101628.52
2018-12-04T12:03:29.985Z,101628.91
2018-12-04T12:05:58.149Z,101641.38
2018-12-04T12:08:26.301Z,101641.77
2018-12-04T12:10:54.519Z,101646.18
2018-12-04T12:13:22.683Z,101646.02
2018-12-04T12:15:50.906Z,101660.91
2018-12-04T12:18:19.041Z,101673.55
2018-12-04T12:20:47.237Z,101678.36
2018-12-04T12:23:15.454Z,101685.68
2018-12-04T12:25:44.685Z,101680.77
2018-12-04T12:28:12.984Z,101681.91
2018-12-04T12:30:41.273Z,101687.80
2018-12-04T12:33:09.386Z,101689.69
2018-12-04T12:35:37.525Z,101685.91
2018-12-04T12:38:05.709Z,101686.47
2018-12-04T12:40:33.865Z,101688.88
2018-12-04T12:43:02.149Z,101687.00
2018-12-04T12:45:30.485Z,101692.61
2018-12-04T12:47:58.642Z,101690.13
2018-12-04T12:50:26.756Z,101694.32
2018-12-04T12:52:55.568Z,101700.10
2018-12-04T12:55:23.709Z,101700.94
2018-12-04T12:57:52.100Z,101719.19
2018-12-04T13:00:20.572Z,101718.04
2018-12-04T13:02:48.730Z,101720.50
2018-12-04T13:05:16.981Z,101719.75
2018-12-04T13:07:45.115Z,101721.41
2018-12-04T13:10:13.347Z,101739.20
2018-12-04T13:12:41.604Z,101746.45
2018-12-04T13:15:09.779Z,101750.95
2018-12-04T13:17:37.924Z,101757.16
2018-12-04T13:20:07.063Z,101757.16
2018-12-04T13:22:35.278Z,101756.67
2018-12-04T13:25:03.478Z,101765.63
2018-12-04T13:27:31.735Z,101767.28
2018-12-04T13:29:59.978Z,101778.33
2018-12-04T13:32:28.121Z,101781.76
2018-12-04T13:34:56.341Z,101781.03
2018-12-04T13:37:24.632Z,101789.08
2018-12-04T13:39:53.821Z,101798.59
2018-12-04T13:42:22.006Z,101798.86
2018-12-04T13:44:50.267Z,101807.22
2018-12-04T13:47:18.483Z,101804.46
2018-12-04T13:49:46.691Z,101825.32
2018-12-04T13:52:14.828Z,101822.69
2018-12-04T13:54:43.012Z,101827.81
2018-12-04T13:57:11.287Z,101831.50
2018-12-04T13:59:39.504Z,101837.80
2018-12-04T14:02:07.917Z,101839.45
2018-12-04T14:04:36.314Z,101849.20
2018-12-04T14:07:05.141Z,101848.84
2018-12-04T14:09:33.339Z,101855.81
2018-12-04T14:12:01.569Z,101852.20
2018-12-04T14:14:29.828Z,101854.90
2018-12-04T14:16:58.133Z,101852.92
2018-12-04T14:19:26.276Z,101852.19
2018-12-04T14:21:54.432Z,101862.78
2018-12-04T14:24:22.605Z,101873.09
2018-12-04T14:26:51.045Z,101873.09
2018-12-04T14:29:19.202Z,101874.41
2018-12-04T14:31:47.431Z,101885.44
2018-12-04T14:34:15.618Z,101886.92
2018-12-04T14:36:43.842Z,101891.40
2018-12-04T14:39:12.143Z,101898.48
2018-12-04T14:41:40.344Z,101905.02
2018-12-04T14:44:08.609Z,101910.97
2018-12-04T14:46:42.227Z,101909.75
2018-12-04T14:49:10.384Z,101912.96
2018-12-04T14:51:38.732Z,101913.59
2018-12-04T14:54:07.056Z,101918.44
2018-12-04T14:56:35.266Z,101939.52
2018-12-04T14:59:03.625Z,101941.02
2018-12-04T15:01:32.025Z,101934.55
2018-12-04T15:04:00.246Z,101944.83
2018-12-04T15:06:28.455Z,101951.27
2018-12-04T15:09:02.981Z,101957.97
2018-12-04T15:11:31.229Z,101963.55
2018-12-04T15:13:59.493Z,101964.81
2018-12-04T15:16:27.881Z,101971.47
2018-12-04T15:18:56.100Z,101972.18
2018-12-04T15:21:24.448Z,101974.18
2018-12-04T15:23:52.874Z,101978.28
2018-12-04T15:26:21.004Z,101976.33
2018-12-04T15:28:49.138Z,101985.08
2018-12-04T15:31:17.356Z,101985.75
2018-12-04T15:33:45.597Z,101989.70
2018-12-04T15:36:13.863Z,101987.07
2018-12-04T15:38:42.060Z,101991.02
2018-12-04T15:41:10.336Z,101992.66
2018-12-04T15:43:38.568Z,102007.58
2018-12-04T15:46:06.777Z,102020.09
2018-12-04T15:48:34.971Z,102022.52
2018-12-04T15:51:03.269Z,102029.74
2018-12-04T15:53:31.607Z,102048.02
2018-12-04T15:55:59.925Z,102063.72
2018-12-04T15:58:28.155Z,102057.55
2018-12-04T16:00:56.284Z,102063.98
2018-12-04T16:03:24.424Z,102058.05
2018-12-04T16:05:52.577Z,102068.49
2018-12-04T16:08:20.902Z,102062.77
2018-12-04T16:10:49.034Z,102065.24
2018-12-04T16:13:17.246Z,102062.46
2018-12-04T16:15:45.463Z,102073.83
2018-12-04T16:18:13.638Z,102074.42
2018-12-04T16:20:41.794Z,102076.92
2018-12-04T16:23:10.024Z,102085.83
2018-12-04T16:28:28.333Z,102084.48
2018-12-04T16:30:56.458Z,102087.97
2018-12-04T16:33:24.682Z,102090.80
2018-12-04T16:35:52.809Z,102090.23
2018-12-04T16:38:20.948Z,102085.70
2018-12-04T16:40:49.243Z,102093.00
2018-12-04T16:43:17.493Z,102088.55
2018-12-04T16:45:45.705Z,102098.22
2018-12-04T16:48:13.836Z,102094.55
2018-12-04T16:50:42.079Z,102096.08
2018-12-04T16:53:10.417Z,102102.56
2018-12-04T16:55:38.645Z,102112.83
2018-12-04T16:58:06.936Z,102116.27
2018-12-04T17:00:35.086Z,102117.20
2018-12-04T17:03:03.400Z,102128.23
2018-12-04T17:05:31.581Z,102138.33
2018-12-04T17:07:59.852Z,102135.36
2018-12-04T17:10:28.005Z,102137.39
2018-12-04T17:12:56.401Z,102130.91
2018-12-04T17:15:24.799Z,102136.64
2018-12-04T17:17:53.035Z,102138.36
2018-12-04T17:20:21.571Z,102143.50
2018-12-04T17:22:49.951Z,102145.13
2018-12-04T17:25:18.085Z,102142.30
2018-12-04T17:27:46.309Z,102143.64
2018-12-04T17:30:14.749Z,102154.25
2018-12-04T17:32:43.284Z,102153.69
2018-12-04T17:35:11.775Z,102160.40
2018-12-04T17:37:40.117Z,102159.54
2018-12-04T17:40:08.722Z,102160.23
2018-12-04T17:42:36.859Z,102153.84
2018-12-04T17:45:05.700Z,102163.63
2018-12-04T17:47:33.871Z,102167.31
2018-12-04T17:50:02.088Z,102174.56
2018-12-04T17:52:30.478Z,102175.47
2018-12-04T17:54:58.764Z,102181.76
2018-12-04T17:57:27.336Z,102179.96
2018-12-04T17:59:55.662Z,102188.23
2018-12-04T18:02:23.861Z,102182.92
2018-12-04T18:04:52.209Z,102180.70
2018-12-04T18:07:21.038Z,102186.48
2018-12-04T18:09:49.369Z,102187.27
2018-12-04T18:12:17.551Z,102191.45
2018-12-04T18:14:45.695Z,102192.28
2018-12-04T18:17:13.927Z,102194.72
2018-12-04T18:19:42.151Z,102198.75
2018-12-04T18:22:10.320Z,102196.03
2018-12-04T18:24:38.529Z,102201.93
2018-12-04T18:27:06.652Z,102207.76
2018-12-04T18:29:36.270Z,102215.57
2018-12-04T18:32:04.548Z,102220.61
2018-12-04T18:34:32.839Z,102228.41
2018-12-04T18:37:01.165Z,102227.61
2018-12-04T18:39:29.508Z,102229.86
2018-12-04T18:41:57.640Z,102228.88
2018-12-04T18:44:25.986Z,102234.92
2018-12-04T18:46:54.285Z,102230.58
2018-12-04T18:49:22.546Z,102229.92
2018-12-04T18:51:50.861Z,102227.98
2018-12-04T18:54:19.088Z,102229.23
2018-12-04T18:56:47.357Z,102234.83
2018-12-04T18:59:15.676Z,102236.61
2018-12-04T19:01:43.921Z,102238.23
2018-12-04T19:04:12.138Z,102246.91
2018-12-04T19:06:40.433Z,102257.00
2018-12-04T19:09:09.025Z,102254.70
2018-12-04T19:11:38.836Z,102264.44
2018-12-04T19:14:07.274Z,102265.33
2018-12-04T19:16:35.460Z,102264.91
2018-12-04T19:19:03.759Z,102264.31
2018-12-04T19:27:15.653Z,102273.92
2018-12-04T19:29:43.831Z,102271.52
2018-12-04T19:32:12.113Z,102279.44
2018-12-04T19:34:40.437Z,102278.63
2018-12-04T19:37:08.654Z,102278.52
2018-12-04T19:39:36.869Z,102289.76
2018-12-04T19:42:05.119Z,102292.35
2018-12-04T19:44:35.139Z,102296.80
2018-12-04T19:47:03.700Z,102293.59
2018-12-04T19:49:33.131Z,102301.95
2018-12-04T19:52:01.314Z,102299.96
2018-12-04T19:54:29.940Z,102308.19
2018-12-04T19:56:58.605Z,102289.81
2018-12-04T19:59:26.989Z,102312.34
2018-12-04T20:01:55.541Z,102313.19
2018-12-04T20:05:49.227Z,102314.82
2018-12-04T20:08:17.541Z,102318.83
2018-12-04T20:10:45.773Z,102330.67
2018-12-04T20:13:14.054Z,102337.55
2018-12-04T20:15:42.257Z,102333.84
2018-12-04T20:18:10.780Z,102341.36
2018-12-04T20:20:38.998Z,102347.44
2018-12-04T20:23:07.157Z,102353.25
2018-12-04T20:25:35.409Z,102361.67
2018-12-04T20:28:10.110Z,102363.42
2018-12-04T20:30:38.361Z,102366.80
2018-12-04T20:33:06.604Z,102373.88
2018-12-04T20:35:34.863Z,102380.07
2018-12-04T20:38:03.210Z,102392.98
2018-12-04T20:40:31.992Z,102392.05
2018-12-04T20:43:00.456Z,102391.12
2018-12-04T20:45:28.662Z,102393.16
2018-12-04T20:47:56.847Z,102403.43
2018-12-04T20:50:25.227Z,102399.76
2018-12-04T20:52:53.572Z,102406.33
2018-12-04T20:55:21.735Z,102403.02
2018-12-04T20:57:50.102Z,102403.50
2018-12-04T21:00:18.388Z,102400.23
2018-12-04T21:02:46.559Z,102408.45
2018-12-04T21:05:14.784Z,102408.41
2018-12-04T21:07:43.038Z,102411.36
2018-12-04T21:10:11.212Z,102411.76
2018-12-04T21:12:39.491Z,102414.11
2018-12-04T21:15:07.835Z,102416.81
2018-12-04T21:17:36.011Z,102418.92
2018-12-04T21:20:04.517Z,102428.99
2018-12-04T21:22:32.825Z,102419.77
2018-12-04T21:25:01.004Z,102413.09
2018-12-04T21:27:34.627Z,102413.56
2018-12-04T21:30:08.448Z,102419.71
2018-12-04T21:32:41.991Z,102425.08
2018-12-04T21:35:15.739Z,102429.98
2018-12-04T21:37:49.229Z,102421.58
2018-12-04T21:40:22.999Z,102423.27
2018-12-04T21:42:56.598Z,102419.34
2018-12-04T21:45:30.165Z,102422.16
2018-12-04T21:48:02.711Z,102420.65
2018-12-04T21:50:31.004Z,102427.56
2018-12-04T21:52:59.209Z,102429.24
2018-12-04T21:55:27.592Z,102439.02
2018-12-04T21:57:55.750Z,102440.94
2018-12-04T22:00:24.064Z,102436.89
2018-12-04T22:02:52.349Z,102446.76
2018-12-04T22:05:20.648Z,102445.05
2018-12-04T22:07:48.831Z,102443.55
2018-12-04T22:10:17.206Z,102441.17
2018-12-04T22:12:45.630Z,102448.98
2018-12-04T22:15:13.976Z,102454.84
2018-12-04T22:17:42.153Z,102458.89
2018-12-04T22:20:10.160Z,102464.89
2018-12-04T22:22:38.481Z,102465.61
2018-12-04T22:25:06.758Z,102462.81
2018-12-04T22:27:34.984Z,102466.15
2018-12-04T22:30:03.532Z,102468.52
2018-12-04T22:32:31.751Z,102465.64
2018-12-04T22:34:59.938Z,102470.34
2018-12-04T22:37:28.075Z,102465.86
2018-12-04T22:39:56.250Z,102470.22
2018-12-04T22:42:24.510Z,102467.39
2018-12-04T22:44:54.804Z,102475.31
2018-12-04T22:47:23.078Z,102484.38
2018-12-04T22:49:51.288Z,102483.44
2018-12-04T22:52:19.557Z,102490.38
2018-12-04T22:55:03.476Z,102493.47
2018-12-04T22:57:39.794Z,102490.94
2018-12-04T23:00:26.547Z,102499.27
2018-12-04T23:02:55.721Z,102501.00
2018-12-04T23:05:24.110Z,102502.27
2018-12-04T23:07:52.360Z,102506.11
2018-12-04T23:10:20.542Z,102503.66
2018-12-04T23:12:48.733Z,102507.28
2018-12-04T23:15:16.976Z,102503.98
2018-12-04T23:17:45.224Z,102509.19
2018-12-04T23:20:13.570Z,102504.36
2018-12-04T23:22:41.758Z,102503.16
2018-12-04T23:25:10.197Z,102497.84
2018-12-04T23:27:38.414Z,102497.30
2018-12-04T23:30:06.851Z,102492.06
2018-12-04T23:32:35.002Z,102498.66
2018-12-04T23:35:03.399Z,102498.48
2018-12-04T23:37:31.699Z,102495.63
2018-12-04T23:40:00.001Z,102503.30
2018-12-04T23:42:28.141Z,102492.69
2018-12-04T23:44:56.485Z,102501.69
2018-12-04T23:47:24.865Z,102498.66
2018-12-04T23:49:53.131Z,102501.19
2018-12-04T23:52:21.298Z,102498.70
2018-12-04T23:54:49.480Z,102503.70
2018-12-04T23:57:17.619Z,102494.17
2018-12-04T23:59:45.850Z,102495.73
